createdAt,value
2022-12-15T00:02:42.125Z,12.65
2022-12-15T00:05:32.430Z,14.40
2022-12-15T00:08:31.901Z,10.88
2022-12-15T00:11:23.250Z,10.60
2022-12-15T00:14:13.753Z,9.40
2022-12-15T00:17:04.052Z,12.70
2022-12-15T00:19:54.358Z,15.60
2022-12-15T00:22:44.669Z,11.35
2022-12-15T00:25:35.357Z,10.82
2022-12-15T00:28:25.782Z,13.45
2022-12-15T00:31:17.242Z,11.18
2022-12-15T00:34:08.237Z,9.32
2022-12-15T00:36:58.725Z,11.47
2022-12-15T00:39:30.728Z,10.02
2022-12-15T00:42:02.699Z,9.18
2022-12-15T00:44:34.753Z,14.20
2022-12-15T00:47:06.753Z,9.48
2022-12-15T00:49:57.585Z,7.13
2022-12-15T00:52:48.225Z,8.77
2022-12-15T00:55:38.502Z,7.43
2022-12-15T00:58:28.777Z,8.35
2022-12-15T01:01:28.400Z,8.77
2022-12-15T01:04:19.291Z,9.13
2022-12-15T01:07:09.713Z,9.05
2022-12-15T01:10:00.077Z,6.63
2022-12-15T01:12:50.909Z,7.70
2022-12-15T01:15:41.257Z,8.63
2022-12-15T01:18:31.540Z,6.95
2022-12-15T01:21:06.177Z,6.85
2022-12-15T01:23:39.708Z,7.78
2022-12-15T01:26:11.617Z,8.13
2022-12-15T01:28:43.529Z,10.02
2022-12-15T01:31:15.509Z,7.40
2022-12-15T01:33:47.481Z,12.27
2022-12-15T01:36:19.540Z,7.93
2022-12-15T01:38:54.256Z,8.75
2022-12-15T01:41:26.773Z,13.93
2022-12-15T01:44:18.661Z,6.57
2022-12-15T01:49:29.160Z,12.90
2022-12-15T01:52:02.699Z,9.70
2022-12-15T01:54:57.943Z,8.23
2022-12-15T01:57:32.597Z,7.05
2022-12-15T02:04:49.900Z,11.73
2022-12-15T02:07:49.829Z,9.02
2022-12-15T02:10:25.028Z,7.25
2022-12-15T02:13:18.510Z,8.10
2022-12-15T02:16:03.957Z,6.90
2022-12-15T02:18:48.163Z,7.75
2022-12-15T02:21:46.826Z,10.13
2022-12-15T02:24:21.680Z,8.25
2022-12-15T02:27:08.246Z,6.43
2022-12-15T02:30:15.101Z,8.43
2022-12-15T02:33:08.738Z,5.82
2022-12-15T02:35:59.388Z,7.38
2022-12-15T02:38:37.429Z,6.75
2022-12-15T02:41:30.857Z,6.45
2022-12-15T02:44:26.778Z,11.07
2022-12-15T02:47:19.939Z,6.97
2022-12-15T02:50:14.751Z,5.55
2022-12-15T02:53:08.278Z,6.47
2022-12-15T02:56:09.723Z,5.53
2022-12-15T02:58:47.378Z,5.55
2022-12-15T03:01:31.001Z,4.22
2022-12-15T03:04:06.638Z,4.65
2022-12-15T03:06:39.190Z,6.38
2022-12-15T03:09:12.553Z,4.03
2022-12-15T03:11:44.431Z,4.53
2022-12-15T03:14:16.586Z,7.60
2022-12-15T03:16:48.674Z,3.47
2022-12-15T03:19:21.954Z,3.22
2022-12-15T03:21:54.076Z,5.32
2022-12-15T03:24:26.048Z,5.60
2022-12-15T03:26:57.960Z,7.68
2022-12-15T03:29:29.917Z,4.78
2022-12-15T03:32:02.013Z,4.05
2022-12-15T03:34:34.026Z,4.63
2022-12-15T03:37:05.876Z,4.45
2022-12-15T03:39:37.821Z,2.55
2022-12-15T03:42:09.695Z,5.82
2022-12-15T03:44:41.603Z,4.20
2022-12-15T03:47:13.470Z,5.35
2022-12-15T03:49:45.385Z,4.75
2022-12-15T03:52:17.345Z,3.60
2022-12-15T03:54:49.390Z,8.98
2022-12-15T03:57:21.376Z,6.50
2022-12-15T03:59:53.333Z,4.72
2022-12-15T04:02:25.430Z,6.72
2022-12-15T04:04:57.520Z,5.57
2022-12-15T04:07:29.414Z,3.80
2022-12-15T04:10:01.250Z,4.05
2022-12-15T04:12:33.281Z,7.13
2022-12-15T04:15:09.351Z,6.00
2022-12-15T04:17:41.946Z,7.18
2022-12-15T04:20:13.944Z,9.48
2022-12-15T04:22:48.241Z,9.57
2022-12-15T04:25:43.141Z,7.78
2022-12-15T04:28:33.465Z,10.18
2022-12-15T04:31:50.902Z,11.30
2022-12-15T04:34:43.279Z,14.25
2022-12-15T04:37:33.933Z,15.45
2022-12-15T04:40:25.311Z,16.27
2022-12-15T04:43:15.625Z,18.75
2022-12-15T04:46:06.006Z,18.17
2022-12-15T04:48:56.320Z,19.83
2022-12-15T04:51:46.707Z,17.70
2022-12-15T04:54:36.999Z,17.73
2022-12-15T04:57:27.443Z,15.63
2022-12-15T05:00:17.910Z,19.35
2022-12-15T05:03:08.993Z,17.70
2022-12-15T05:06:02.245Z,17.90
2022-12-15T05:08:52.468Z,19.67
2022-12-15T05:11:42.852Z,16.98
2022-12-15T05:14:33.518Z,19.88
2022-12-15T05:17:23.938Z,17.20
2022-12-15T05:20:14.352Z,17.35
2022-12-15T05:23:04.855Z,17.85
2022-12-15T05:25:55.111Z,15.95
2022-12-15T05:28:45.877Z,16.63
2022-12-15T05:31:37.633Z,16.55
2022-12-15T05:34:09.616Z,15.07
2022-12-15T05:36:41.606Z,14.65
2022-12-15T05:39:13.666Z,16.27
2022-12-15T05:41:45.733Z,14.82
2022-12-15T05:44:18.283Z,19.02
2022-12-15T05:46:50.318Z,15.82
2022-12-15T05:49:23.342Z,15.52
2022-12-15T05:51:55.309Z,15.43
2022-12-15T05:54:27.225Z,16.38
2022-12-15T05:56:59.123Z,18.55
2022-12-15T05:59:31.019Z,14.85
2022-12-15T06:02:03.168Z,16.77
2022-12-15T06:04:35.176Z,13.60
2022-12-15T06:07:10.160Z,14.93
2022-12-15T06:09:42.070Z,15.00
2022-12-15T06:12:13.898Z,19.63
2022-12-15T06:14:45.879Z,15.23
2022-12-15T06:17:40.721Z,15.20
2022-12-15T06:20:12.626Z,16.45
2022-12-15T06:22:49.711Z,17.38
2022-12-15T06:25:22.087Z,16.70
2022-12-15T06:27:58.371Z,13.70
2022-12-15T06:30:33.775Z,15.27
2022-12-15T06:33:05.773Z,14.73
2022-12-15T06:35:38.643Z,12.50
2022-12-15T06:38:10.699Z,12.68
2022-12-15T06:40:42.621Z,15.65
2022-12-15T06:43:14.585Z,21.05
2022-12-15T06:45:50.421Z,11.75
2022-12-15T06:48:24.218Z,13.25
2022-12-15T06:50:56.719Z,18.35
2022-12-15T06:53:29.026Z,11.75
2022-12-15T06:56:04.092Z,15.05
2022-12-15T06:58:35.932Z,22.05
2022-12-15T07:01:08.406Z,17.60
2022-12-15T07:03:41.032Z,12.52
2022-12-15T07:06:15.579Z,16.10
2022-12-15T07:08:53.114Z,15.95
2022-12-15T07:11:25.090Z,16.70
2022-12-15T07:13:56.978Z,13.13
2022-12-15T07:16:29.026Z,11.35
2022-12-15T07:19:00.905Z,15.20
2022-12-15T07:21:32.802Z,14.40
2022-12-15T07:24:05.473Z,16.40
2022-12-15T07:26:37.592Z,28.05
2022-12-15T07:29:10.376Z,42.20
2022-12-15T07:31:42.452Z,27.00
2022-12-15T07:34:14.457Z,23.05
2022-12-15T07:36:51.906Z,20.42
2022-12-15T07:39:24.601Z,15.77
2022-12-15T07:41:56.592Z,14.20
2022-12-15T07:44:29.287Z,16.15
2022-12-15T07:47:01.177Z,15.57
2022-12-15T07:49:33.101Z,17.90
2022-12-15T07:52:05.124Z,17.75
2022-12-15T07:54:37.109Z,17.02
2022-12-15T07:57:09.061Z,23.38
2022-12-15T07:59:40.931Z,24.98
2022-12-15T08:02:14.099Z,19.50
2022-12-15T08:04:46.078Z,20.13
2022-12-15T08:07:18.140Z,20.30
2022-12-15T08:09:50.050Z,16.73
2022-12-15T08:12:21.918Z,16.05
2022-12-15T08:14:53.931Z,18.27
2022-12-15T08:17:25.789Z,22.45
2022-12-15T08:19:58.993Z,21.52
2022-12-15T08:22:30.976Z,20.77
2022-12-15T08:25:02.913Z,25.95
2022-12-15T08:27:35.811Z,22.60
2022-12-15T08:30:08.541Z,23.65
2022-12-15T08:32:40.441Z,23.88
2022-12-15T08:35:39.034Z,25.70
2022-12-15T08:38:05.850Z,15.65
2022-12-15T08:40:38.109Z,15.32
2022-12-15T08:43:10.051Z,22.67
2022-12-15T08:45:42.522Z,22.95
2022-12-15T08:48:14.510Z,18.92
2022-12-15T08:50:46.330Z,20.77
2022-12-15T08:53:33.585Z,24.08
2022-12-15T08:56:08.734Z,27.20
2022-12-15T08:58:40.720Z,19.80
2022-12-15T09:01:22.495Z,23.42
2022-12-15T09:03:56.545Z,22.70
2022-12-15T09:06:35.515Z,19.60
2022-12-15T09:09:10.708Z,23.58
2022-12-15T09:11:42.621Z,24.45
2022-12-15T09:14:14.928Z,24.30
2022-12-15T09:16:50.676Z,30.15
2022-12-15T09:19:22.766Z,29.20
2022-12-15T09:21:54.840Z,29.50
2022-12-15T09:24:34.698Z,29.77
2022-12-15T09:27:07.556Z,28.15
2022-12-15T09:29:39.474Z,29.67
2022-12-15T09:32:14.283Z,26.38
2022-12-15T09:34:46.456Z,32.67
2022-12-15T09:37:18.702Z,29.50
2022-12-15T09:39:50.679Z,29.90
2022-12-15T09:42:28.585Z,31.63
2022-12-15T09:45:07.742Z,34.00
2022-12-15T09:47:57.279Z,41.20
2022-12-15T09:50:38.828Z,33.20
2022-12-15T09:53:45.601Z,37.03
2022-12-15T09:56:18.068Z,31.92
2022-12-15T09:59:13.714Z,32.95
2022-12-15T10:01:53.636Z,29.73
2022-12-15T10:04:43.729Z,36.00
2022-12-15T10:07:26.897Z,31.38
2022-12-15T10:09:58.930Z,32.90
2022-12-15T10:12:35.738Z,33.67
2022-12-15T10:15:29.187Z,30.60
2022-12-15T10:18:12.463Z,30.25
2022-12-15T10:20:44.336Z,31.30
2022-12-15T10:23:20.811Z,28.55
2022-12-15T10:26:14.391Z,29.17
2022-12-15T10:29:11.042Z,27.95
2022-12-15T10:31:51.226Z,25.77
2022-12-15T10:34:27.770Z,24.88
2022-12-15T10:36:59.746Z,24.65
2022-12-15T10:39:46.041Z,27.88
2022-12-15T10:42:25.340Z,23.33
2022-12-15T10:44:58.921Z,25.77
2022-12-15T10:47:32.370Z,26.20
2022-12-15T10:50:24.705Z,25.13
2022-12-15T10:52:57.330Z,27.70
2022-12-15T10:55:29.162Z,25.95
2022-12-15T10:58:03.018Z,29.73
2022-12-15T11:00:35.121Z,32.08
2022-12-15T11:03:23.097Z,27.35
2022-12-15T11:05:57.070Z,33.92
2022-12-15T11:08:30.089Z,27.15
2022-12-15T11:11:26.080Z,23.13
2022-12-15T11:14:07.267Z,22.23
2022-12-15T11:16:48.887Z,25.15
2022-12-15T11:22:30.420Z,40.08
2022-12-15T11:25:24.597Z,25.65
2022-12-15T11:27:59.631Z,24.25
2022-12-15T11:30:42.447Z,23.13
2022-12-15T11:33:14.861Z,25.25
2022-12-15T11:35:46.661Z,23.38
2022-12-15T11:38:35.467Z,21.63
2022-12-15T11:41:30.587Z,30.27
2022-12-15T11:44:44.007Z,24.25
2022-12-15T11:47:40.796Z,32.65
2022-12-15T11:50:34.172Z,25.33
2022-12-15T11:53:14.791Z,29.83
2022-12-15T11:56:05.557Z,44.85
2022-12-15T11:58:56.420Z,29.23
2022-12-15T12:01:38.336Z,42.90
2022-12-15T12:04:34.552Z,67.18
2022-12-15T12:10:37.519Z,35.95
2022-12-15T12:13:21.246Z,28.13
2022-12-15T12:16:09.238Z,28.02
2022-12-15T12:19:06.099Z,26.00
2022-12-15T12:21:46.426Z,28.65
2022-12-15T12:24:54.910Z,27.20
2022-12-15T12:27:44.653Z,22.55
2022-12-15T12:30:23.385Z,23.05
2022-12-15T12:33:11.875Z,25.90
2022-12-15T12:35:51.699Z,27.38
2022-12-15T12:38:34.255Z,24.88
2022-12-15T12:41:18.676Z,22.30
2022-12-15T12:46:54.005Z,22.20
2022-12-15T12:50:03.731Z,21.27
2022-12-15T12:52:37.877Z,22.95
2022-12-15T12:55:14.433Z,20.85
2022-12-15T12:57:47.441Z,23.15
2022-12-15T13:00:28.166Z,22.80
2022-12-15T13:03:12.556Z,22.08
2022-12-15T13:05:46.741Z,22.25
2022-12-15T13:08:51.592Z,25.55
2022-12-15T13:11:49.118Z,23.40
2022-12-15T13:14:34.865Z,22.55
2022-12-15T13:17:28.240Z,26.67
2022-12-15T13:20:03.208Z,82.25
2022-12-15T13:22:40.009Z,34.83
2022-12-15T13:25:38.685Z,29.40
2022-12-15T13:28:19.126Z,27.35
2022-12-15T13:31:16.598Z,27.90
2022-12-15T13:33:53.858Z,29.50
2022-12-15T13:36:38.224Z,27.30
2022-12-15T13:39:19.409Z,29.75
2022-12-15T13:44:52.882Z,31.83
2022-12-15T13:47:30.156Z,28.38
2022-12-15T13:50:12.385Z,25.67
2022-12-15T13:56:03.659Z,34.22
2022-12-15T13:58:44.560Z,27.17
2022-12-15T14:01:30.170Z,29.10
2022-12-15T14:04:06.157Z,30.13
2022-12-15T14:06:44.089Z,26.95
2022-12-15T14:09:21.307Z,22.17
2022-12-15T14:14:49.833Z,19.50
2022-12-15T14:17:22.378Z,16.90
2022-12-15T14:19:54.261Z,18.73
2022-12-15T14:22:30.001Z,23.58
2022-12-15T14:25:22.493Z,24.40
2022-12-15T14:27:54.441Z,26.67
2022-12-15T14:30:33.132Z,30.38
2022-12-15T14:33:12.318Z,34.55
2022-12-15T14:35:50.132Z,32.60
2022-12-15T14:38:28.094Z,30.30
2022-12-15T14:41:03.609Z,29.02
2022-12-15T14:43:40.111Z,31.27
2022-12-15T14:46:23.697Z,41.38
2022-12-15T14:49:05.644Z,36.13
2022-12-15T14:51:48.548Z,34.00
2022-12-15T14:54:35.747Z,31.63
2022-12-15T14:57:28.247Z,33.65
2022-12-15T15:00:00.087Z,30.35
2022-12-15T15:02:32.048Z,29.70
2022-12-15T15:03:05.498Z,25.45
2022-12-15T15:03:07.047Z,22.77
2022-12-15T15:03:10.065Z,21.30
2022-12-15T15:03:16.258Z,29.10
2022-12-15T15:05:09.841Z,31.95
2022-12-15T15:07:45.651Z,26.40
2022-12-15T15:10:29.713Z,30.35
2022-12-15T15:13:05.984Z,26.48
2022-12-15T15:15:38.532Z,21.02
2022-12-15T15:18:15.526Z,19.00
2022-12-15T15:21:15.058Z,26.08
2022-12-15T15:24:20.170Z,26.27
2022-12-15T15:26:53.067Z,28.67
2022-12-15T15:29:39.429Z,29.45
2022-12-15T15:32:20.614Z,27.42
2022-12-15T15:34:52.558Z,33.83
2022-12-15T15:37:25.301Z,23.45
2022-12-15T15:39:57.143Z,26.92
2022-12-15T15:42:32.465Z,19.98
2022-12-15T15:45:05.320Z,23.27
2022-12-15T15:47:37.787Z,22.63
2022-12-15T15:50:14.581Z,18.88
2022-12-15T15:52:46.616Z,20.23
2022-12-15T15:55:29.488Z,19.65
2022-12-15T15:58:05.414Z,22.67
2022-12-15T16:00:37.430Z,19.38
2022-12-15T16:03:26.839Z,20.63
2022-12-15T16:05:59.028Z,17.85
2022-12-15T16:08:36.912Z,16.33
2022-12-15T16:11:12.208Z,16.73
2022-12-15T16:13:45.024Z,16.73
2022-12-15T16:16:21.591Z,14.02
2022-12-15T16:18:53.546Z,13.02
2022-12-15T16:21:27.863Z,16.80
2022-12-15T16:24:00.614Z,11.77
2022-12-15T16:26:34.084Z,10.43
2022-12-15T16:29:16.993Z,8.55
2022-12-15T16:31:50.253Z,9.90
2022-12-15T16:34:24.706Z,17.33
2022-12-15T16:36:59.790Z,9.43
2022-12-15T16:39:34.129Z,12.00
2022-12-15T16:42:10.719Z,11.18
2022-12-15T16:44:45.657Z,25.08
2022-12-15T16:47:17.555Z,23.42
2022-12-15T16:49:49.700Z,25.20
2022-12-15T16:52:24.427Z,23.42
2022-12-15T16:54:58.424Z,34.05
2022-12-15T16:57:30.359Z,30.30
2022-12-15T17:00:02.531Z,29.17
2022-12-15T17:02:42.050Z,28.60
2022-12-15T17:05:14.160Z,30.48
2022-12-15T17:07:55.841Z,29.67
2022-12-15T17:10:30.227Z,29.58
2022-12-15T17:13:24.207Z,30.88
2022-12-15T17:15:56.954Z,27.10
2022-12-15T17:18:29.696Z,28.45
2022-12-15T17:21:25.214Z,25.80
2022-12-15T17:24:03.661Z,34.75
2022-12-15T17:26:37.064Z,34.75
2022-12-15T17:29:16.394Z,27.25
2022-12-15T17:31:52.674Z,29.73
2022-12-15T17:34:32.347Z,29.80
2022-12-15T17:37:08.195Z,25.40
2022-12-15T17:39:51.708Z,29.63
2022-12-15T17:42:24.219Z,31.65
2022-12-15T17:44:56.713Z,32.28
2022-12-15T17:47:30.508Z,30.80
2022-12-15T17:50:02.457Z,23.85
2022-12-15T17:52:34.622Z,26.08
2022-12-15T17:55:22.462Z,23.50
2022-12-15T17:57:55.658Z,23.33
2022-12-15T18:00:32.756Z,28.17
2022-12-15T18:03:05.355Z,33.25
2022-12-15T18:05:38.514Z,19.63
2022-12-15T18:08:22.704Z,18.83
2022-12-15T18:10:58.564Z,25.45
2022-12-15T18:13:35.436Z,24.75
2022-12-15T18:16:07.968Z,23.77
2022-12-15T18:18:40.048Z,19.48
2022-12-15T18:21:15.431Z,13.85
2022-12-15T18:23:47.871Z,13.27
2022-12-15T18:26:21.023Z,13.23
2022-12-15T18:28:52.905Z,18.05
2022-12-15T18:31:27.077Z,18.50
2022-12-15T18:34:04.457Z,20.25
2022-12-15T18:36:37.088Z,16.58
2022-12-15T18:39:27.091Z,24.48
2022-12-15T18:41:59.137Z,17.35
2022-12-15T18:44:31.965Z,19.25
2022-12-15T18:47:11.762Z,23.17
2022-12-15T18:49:43.854Z,22.58
2022-12-15T18:52:21.841Z,20.20
2022-12-15T18:54:54.319Z,22.15
2022-12-15T18:57:38.095Z,23.55
2022-12-15T19:00:09.967Z,19.02
2022-12-15T19:02:42.721Z,21.42
2022-12-15T19:05:32.375Z,18.15
2022-12-15T19:08:14.973Z,19.95
2022-12-15T19:11:01.340Z,17.17
2022-12-15T19:13:36.106Z,15.35
2022-12-15T19:16:18.719Z,15.73
2022-12-15T19:19:13.796Z,15.48
2022-12-15T19:22:27.714Z,14.50
2022-12-15T19:24:59.626Z,17.17
2022-12-15T19:27:31.952Z,26.80
2022-12-15T19:30:13.741Z,32.25
2022-12-15T19:32:46.074Z,24.77
2022-12-15T19:35:17.939Z,18.73
2022-12-15T19:37:50.064Z,22.20
2022-12-15T19:40:27.707Z,18.80
2022-12-15T19:43:00.951Z,28.98
2022-12-15T19:45:33.409Z,24.65
2022-12-15T19:48:06.277Z,19.67
2022-12-15T19:50:39.709Z,19.10
2022-12-15T19:53:17.575Z,20.10
2022-12-15T19:55:49.965Z,24.00
2022-12-15T19:58:28.785Z,23.80
2022-12-15T20:01:04.820Z,21.95
2022-12-15T20:03:37.447Z,20.67
2022-12-15T20:06:22.369Z,19.77
2022-12-15T20:08:56.206Z,17.23
2022-12-15T20:11:30.987Z,15.98
2022-12-15T20:14:09.122Z,14.95
2022-12-15T20:16:41.199Z,15.95
2022-12-15T20:19:13.319Z,18.77
2022-12-15T20:21:45.249Z,21.02
2022-12-15T20:24:19.499Z,17.92
2022-12-15T20:26:51.508Z,16.85
2022-12-15T20:29:26.509Z,14.45
2022-12-15T20:31:59.378Z,15.75
2022-12-15T20:34:31.499Z,15.32
2022-12-15T20:37:04.340Z,13.95
2022-12-15T20:39:36.929Z,13.10
2022-12-15T20:42:18.308Z,13.38
2022-12-15T20:44:50.240Z,15.40
2022-12-15T20:47:26.971Z,15.52
2022-12-15T20:49:59.516Z,14.80
2022-12-15T20:52:31.593Z,14.90
2022-12-15T20:55:09.985Z,15.07
2022-12-15T20:57:42.026Z,18.90
2022-12-15T21:00:14.923Z,19.38
2022-12-15T21:02:47.534Z,19.35
2022-12-15T21:05:23.748Z,20.75
2022-12-15T21:07:55.749Z,23.13
2022-12-15T21:10:27.839Z,23.65
2022-12-15T21:12:59.737Z,23.55
2022-12-15T21:15:31.658Z,19.60
2022-12-15T21:18:46.617Z,18.45
2022-12-15T21:20:58.866Z,14.18
2022-12-15T21:23:31.856Z,12.85
2022-12-15T21:26:04.084Z,10.65
2022-12-15T21:28:36.107Z,8.68
2022-12-15T21:31:07.987Z,6.30
2022-12-15T21:33:39.974Z,6.80
2022-12-15T21:36:17.134Z,7.20
2022-12-15T21:38:51.972Z,8.38
2022-12-15T21:41:24.161Z,9.60
2022-12-15T21:43:56.106Z,9.50
2022-12-15T21:46:28.912Z,12.70
2022-12-15T21:49:18.208Z,10.30
2022-12-15T21:51:58.560Z,9.60
2022-12-15T21:54:33.155Z,8.82
2022-12-15T21:57:10.366Z,8.60
2022-12-15T21:59:42.980Z,8.95
2022-12-15T22:02:26.308Z,9.07
2022-12-15T22:04:58.441Z,8.20
2022-12-15T22:07:30.375Z,8.52
2022-12-15T22:10:02.371Z,7.55
2022-12-15T22:12:34.284Z,7.10
2022-12-15T22:15:18.612Z,6.85
2022-12-15T22:17:50.820Z,6.20
2022-12-15T22:20:24.604Z,5.30
2022-12-15T22:22:56.566Z,5.20
2022-12-15T22:25:28.497Z,5.18
2022-12-15T22:28:00.377Z,4.00
2022-12-15T22:30:32.378Z,4.15
2022-12-15T22:33:19.150Z,3.97
2022-12-15T22:35:54.887Z,4.35
2022-12-15T22:38:26.907Z,7.43
2022-12-15T22:40:59.845Z,4.85
2022-12-15T22:43:36.089Z,5.28
2022-12-15T22:46:12.461Z,5.30
2022-12-15T22:48:47.598Z,5.40
2022-12-15T22:51:19.633Z,6.43
2022-12-15T22:53:51.652Z,9.80
2022-12-15T22:56:34.396Z,5.20
2022-12-15T22:59:10.827Z,5.80
2022-12-15T23:01:43.026Z,4.93
2022-12-15T23:04:15.060Z,6.53
2022-12-15T23:06:47.074Z,6.45
2022-12-15T23:09:18.965Z,6.57
2022-12-15T23:11:50.903Z,10.15
2022-12-15T23:14:42.827Z,10.05
2022-12-15T23:17:14.796Z,8.20
2022-12-15T23:19:47.172Z,7.25
2022-12-15T23:22:19.174Z,7.25
2022-12-15T23:24:51.106Z,6.93
2022-12-15T23:27:23.774Z,7.35
2022-12-15T23:29:55.768Z,6.80
2022-12-15T23:32:27.729Z,8.45
2022-12-15T23:34:59.606Z,7.80
2022-12-15T23:37:31.516Z,9.15
2022-12-15T23:40:03.681Z,8.18
2022-12-15T23:42:35.789Z,7.88
2022-12-15T23:45:08.258Z,8.38
2022-12-15T23:47:40.732Z,8.65
2022-12-15T23:50:12.736Z,8.50
2022-12-15T23:52:47.284Z,8.15
2022-12-15T23:55:20.942Z,7.28
2022-12-15T23:57:55.973Z,8.50
